createdAt,value
2019-04-03T00:00:29.932Z,18.1
2019-04-03T00:01:30.048Z,18.6
2019-04-03T00:02:30.163Z,17.799999
2019-04-03T00:03:30.283Z,18
2019-04-03T00:04:30.372Z,18.200001
2019-04-03T00:05:30.480Z,17.6
2019-04-03T00:06:30.573Z,18
2019-04-03T00:07:30.670Z,18
2019-04-03T00:08:30.800Z,17.299999
2019-04-03T00:09:29.910Z,17.4
2019-04-03T00:10:31.017Z,17.799999
2019-04-03T00:11:30.134Z,17.700001
2019-04-03T00:12:30.290Z,18.4
2019-04-03T00:13:30.434Z,18.1
2019-04-03T00:14:30.548Z,17.299999
2019-04-03T00:15:30.650Z,18.4
2019-04-03T00:16:30.852Z,18.4
2019-04-03T00:17:30.870Z,17.5
2019-04-03T00:18:31.010Z,17.9
2019-04-03T00:19:31.189Z,17.9
2019-04-03T00:20:31.300Z,17.799999
2019-04-03T00:21:31.450Z,18.5
2019-04-03T00:22:31.389Z,17.299999
2019-04-03T00:23:31.529Z,17.700001
2019-04-03T00:24:31.662Z,17.799999
2019-04-03T00:25:31.840Z,17.1
2019-04-03T00:26:31.853Z,17.9
2019-04-03T00:27:31.789Z,18.1
2019-04-03T00:28:31.909Z,17.9
2019-04-03T00:29:32.003Z,17.700001
2019-04-03T00:30:32.424Z,17.200001
2019-04-03T00:31:32.205Z,17.700001
2019-04-03T00:32:32.309Z,17.5
2019-04-03T00:33:32.428Z,16.9
2019-04-03T00:34:33.537Z,17.799999
2019-04-03T00:35:32.634Z,17.1
2019-04-03T00:36:32.728Z,17.200001
2019-04-03T00:37:32.857Z,17.9
2019-04-03T00:38:32.946Z,18.299999
2019-04-03T00:39:33.055Z,17.9
2019-04-03T00:40:33.143Z,18.1
2019-04-03T00:41:33.293Z,17.700001
2019-04-03T00:42:33.332Z,18.5
2019-04-03T00:43:33.443Z,18.799999
2019-04-03T00:44:33.541Z,18.1
2019-04-03T00:45:33.643Z,18
2019-04-03T00:46:33.792Z,18.4
2019-04-03T00:47:33.916Z,18.5
2019-04-03T00:48:34.028Z,18.200001
2019-04-03T00:49:34.115Z,19.6
2019-04-03T00:50:34.232Z,20.200001
2019-04-03T00:51:34.329Z,20.1
2019-04-03T00:52:34.430Z,20.299999
2019-04-03T00:53:34.550Z,20.299999
2019-04-03T00:54:34.633Z,19.4
2019-04-03T00:55:34.726Z,20
2019-04-03T00:56:34.842Z,20.1
2019-04-03T00:57:34.933Z,20.9
2019-04-03T00:58:35.071Z,21.5
2019-04-03T00:59:35.120Z,20.5
2019-04-03T01:00:35.179Z,21.4
2019-04-03T01:01:35.213Z,20.4
2019-04-03T01:02:35.291Z,20.9
2019-04-03T01:03:35.369Z,21.6
2019-04-03T01:04:35.440Z,22
2019-04-03T01:05:35.499Z,22.9
2019-04-03T01:06:35.517Z,23
2019-04-03T01:07:35.572Z,22.799999
2019-04-03T01:08:35.673Z,23.299999
2019-04-03T01:09:35.704Z,23.200001
2019-04-03T01:10:35.820Z,24.1
2019-04-03T01:11:35.800Z,23.6
2019-04-03T01:12:35.844Z,23.799999
2019-04-03T01:13:35.910Z,24.700001
2019-04-03T01:14:35.930Z,24.6
2019-04-03T01:15:36.079Z,24.799999
2019-04-03T01:16:36.187Z,24.799999
2019-04-03T01:17:36.315Z,25.6
2019-04-03T01:18:36.329Z,25.5
2019-04-03T01:19:36.981Z,25.9
2019-04-03T01:20:36.704Z,25.200001
2019-04-03T01:21:37.403Z,26.4
2019-04-03T01:22:37.250Z,26.4
2019-04-03T01:23:37.766Z,25.9
2019-04-03T01:24:38.289Z,25.6
2019-04-03T01:25:37.804Z,25.700001
2019-04-03T01:26:40.148Z,25.6
2019-04-03T01:27:37.777Z,25.4
2019-04-03T01:28:37.938Z,24.799999
2019-04-03T01:29:38.021Z,25.4
2019-04-03T01:30:38.154Z,25.799999
2019-04-03T01:31:37.209Z,25.299999
2019-04-03T01:32:37.299Z,26
2019-04-03T01:33:37.425Z,25.9
2019-04-03T01:34:37.544Z,25.799999
2019-04-03T01:35:37.894Z,25.4
2019-04-03T01:36:37.841Z,25.5
2019-04-03T01:37:37.816Z,26.4
2019-04-03T01:38:37.910Z,25.1
2019-04-03T01:39:37.953Z,24.299999
2019-04-03T01:40:38.120Z,25.5
2019-04-03T01:41:38.070Z,26.299999
2019-04-03T01:42:38.076Z,26.200001
2019-04-03T01:43:38.203Z,25.700001
2019-04-03T01:44:38.209Z,24.700001
2019-04-03T01:45:38.361Z,23.200001
2019-04-03T01:46:38.428Z,23.4
2019-04-03T01:47:38.649Z,23.1
2019-04-03T01:48:38.726Z,22.299999
2019-04-03T01:49:38.719Z,21.5
2019-04-03T01:50:38.765Z,23.299999
2019-04-03T01:51:38.851Z,23.799999
2019-04-03T01:52:38.932Z,23.700001
2019-04-03T01:53:39.010Z,23
2019-04-03T01:54:39.041Z,23
2019-04-03T01:55:39.028Z,22.1
2019-04-03T01:56:39.089Z,22.6
2019-04-03T01:57:39.169Z,21.9
2019-04-03T01:58:39.333Z,21.799999
2019-04-03T01:59:39.449Z,21.799999
2019-04-03T02:00:39.395Z,22.6
2019-04-03T02:01:39.602Z,21.700001
2019-04-03T02:02:39.553Z,22.200001
2019-04-03T02:03:41.367Z,22.700001
2019-04-03T02:04:41.952Z,21.799999
2019-04-03T02:05:39.919Z,21.700001
2019-04-03T02:06:41.773Z,21.9
2019-04-03T02:07:41.053Z,23.5
2019-04-03T02:08:41.216Z,22.5
2019-04-03T02:09:41.195Z,22.9
2019-04-03T02:10:41.243Z,22.700001
2019-04-03T02:11:40.490Z,23.299999
2019-04-03T02:12:40.376Z,23.799999
2019-04-03T02:13:40.701Z,23.9
2019-04-03T02:14:40.634Z,23.700001
2019-04-03T02:15:40.706Z,23.1
2019-04-03T02:16:40.847Z,23.9
2019-04-03T02:17:41.137Z,24.6
2019-04-03T02:18:41.049Z,24.700001
2019-04-03T02:19:41.124Z,24
2019-04-03T02:20:41.260Z,24.1
2019-04-03T02:21:41.334Z,26.4
2019-04-03T02:22:41.393Z,25.5
2019-04-03T02:23:41.492Z,24.200001
2019-04-03T02:24:41.541Z,23.4
2019-04-03T02:25:41.580Z,23.5
2019-04-03T02:26:41.691Z,27.799999
2019-04-03T02:27:41.711Z,25.5
2019-04-03T02:28:41.935Z,27.9
2019-04-03T02:29:41.913Z,30.700001
2019-04-03T02:30:44.609Z,24.799999
2019-04-03T02:31:43.238Z,23.700001
2019-04-03T02:32:42.166Z,24.299999
2019-04-03T02:33:42.521Z,24.5
2019-04-03T02:34:42.284Z,24.4
2019-04-03T02:35:42.307Z,28.5
2019-04-03T02:36:43.969Z,23.4
2019-04-03T02:37:43.431Z,22.799999
2019-04-03T02:38:43.491Z,22.700001
2019-04-03T02:39:42.464Z,23.6
2019-04-03T02:40:42.529Z,23.1
2019-04-03T02:41:42.519Z,22.700001
2019-04-03T02:42:42.688Z,22
2019-04-03T02:43:45.305Z,20.9
2019-04-03T02:44:43.892Z,20.4
2019-04-03T02:45:42.912Z,19.9
2019-04-03T02:46:43.130Z,19.799999
2019-04-03T02:47:43.162Z,19.700001
2019-04-03T02:48:43.116Z,19.700001
2019-04-03T02:49:43.786Z,19
2019-04-03T02:50:46.490Z,18.9
2019-04-03T02:51:44.226Z,19
2019-04-03T02:52:43.326Z,18.4
2019-04-03T02:53:43.589Z,19.200001
2019-04-03T02:54:43.450Z,18.700001
2019-04-03T02:55:43.511Z,19
2019-04-03T02:56:45.104Z,18.9
2019-04-03T02:57:43.581Z,17.6
2019-04-03T02:58:44.665Z,17.700001
2019-04-03T02:59:43.729Z,16.4
2019-04-03T03:00:43.828Z,17.200001
2019-04-03T03:01:43.844Z,17.5
2019-04-03T03:02:45.077Z,17.4
2019-04-03T03:03:44.087Z,15.9
2019-04-03T03:04:45.144Z,15.1
2019-04-03T03:05:44.201Z,15.5
2019-04-03T03:06:44.282Z,15.5
2019-04-03T03:07:44.332Z,13.7
2019-04-03T03:08:44.356Z,13.7
2019-04-03T03:09:46.572Z,12.6
2019-04-03T03:10:45.557Z,12.7
2019-04-03T03:11:45.559Z,11.1
2019-04-03T03:12:44.595Z,12.3
2019-04-03T03:13:44.715Z,13.6
2019-04-03T03:14:44.828Z,9.7
2019-04-03T03:15:45.452Z,10.5
2019-04-03T03:16:44.905Z,14
2019-04-03T03:17:46.203Z,10
2019-04-03T03:18:45.174Z,8.6
2019-04-03T03:19:45.172Z,7.5
2019-04-03T03:20:45.130Z,8.4
2019-04-03T03:21:45.529Z,7.5
2019-04-03T03:22:45.700Z,7.4
2019-04-03T03:23:46.353Z,6.9
2019-04-03T03:24:45.350Z,6.7
2019-04-03T03:25:45.347Z,7.3
2019-04-03T03:26:45.321Z,6.6
2019-04-03T03:27:45.451Z,6.1
2019-04-03T03:28:47.258Z,6.6
2019-04-03T03:29:45.636Z,5.8
2019-04-03T03:30:55.379Z,5.8
2019-04-03T03:32:04.225Z,5.9
2019-04-03T03:32:46.962Z,5.8
2019-04-03T03:33:46.301Z,5.7
2019-04-03T03:34:54.624Z,5.8
2019-04-03T03:35:49.076Z,6
2019-04-03T03:36:47.897Z,5.9
2019-04-03T03:37:47.346Z,5.7
2019-04-03T03:38:46.458Z,5.7
2019-04-03T03:39:46.352Z,6.1
2019-04-03T03:40:48.309Z,6.2
2019-04-03T03:41:47.484Z,6.5
2019-04-03T03:42:46.509Z,6.1
2019-04-03T03:43:46.495Z,6.8
2019-04-03T03:44:46.967Z,6.6
2019-04-03T03:45:46.503Z,6.6
2019-04-03T03:46:47.739Z,6.4
2019-04-03T03:47:46.785Z,6.4
2019-04-03T03:48:46.939Z,6.3
2019-04-03T03:49:49.522Z,6.8
2019-04-03T03:50:47.952Z,6.1
2019-04-03T03:51:46.967Z,6.5
2019-04-03T03:52:47.323Z,6.4
2019-04-03T03:53:47.100Z,6.5
2019-04-03T03:54:49.535Z,6.6
2019-04-03T03:55:48.254Z,6.6
2019-04-03T03:56:47.235Z,6.8
2019-04-03T03:57:47.382Z,6.9
2019-04-03T03:58:48.694Z,6.5
2019-04-03T03:59:51.044Z,6.9
2019-04-03T04:00:51.929Z,7
2019-04-03T04:01:48.843Z,7.2
2019-04-03T04:02:47.815Z,7.6
2019-04-03T04:03:47.965Z,7.2
2019-04-03T04:04:48.864Z,7.9
2019-04-03T04:05:48.521Z,8.6
2019-04-03T04:06:49.124Z,7.7
2019-04-03T04:07:48.140Z,8.2
2019-04-03T04:08:48.102Z,8.7
2019-04-03T04:09:50.476Z,10.4
2019-04-03T04:10:49.229Z,10.3
2019-04-03T04:11:48.595Z,9.6
2019-04-03T04:12:48.271Z,8.8
2019-04-03T04:13:49.625Z,8.6
2019-04-03T04:14:48.734Z,8.2
2019-04-03T04:15:49.666Z,9.1
2019-04-03T04:16:48.684Z,8.8
2019-04-03T04:17:50.932Z,9
2019-04-03T04:18:50.160Z,9
2019-04-03T04:19:49.865Z,8.9
2019-04-03T04:20:48.882Z,8.7
2019-04-03T04:21:48.846Z,8.8
2019-04-03T04:22:50.194Z,9
2019-04-03T04:23:49.143Z,8.8
2019-04-03T04:24:50.458Z,9.1
2019-04-03T04:25:49.315Z,9.1
2019-04-03T04:26:50.148Z,9.4
2019-04-03T04:27:49.463Z,10.1
2019-04-03T04:28:49.443Z,9.5
2019-04-03T04:29:49.618Z,9.4
2019-04-03T04:30:49.622Z,10.5
2019-04-03T04:31:49.699Z,9.7
2019-04-03T04:32:49.784Z,10.5
2019-04-03T04:33:49.921Z,10
2019-04-03T04:34:50.610Z,9.9
2019-04-03T04:35:52.152Z,11.6
2019-04-03T04:36:51.239Z,12.4
2019-04-03T04:37:51.211Z,10.7
2019-04-03T04:38:51.315Z,10.3
2019-04-03T04:39:50.347Z,10.3
2019-04-03T04:40:50.461Z,10.2
2019-04-03T04:41:50.605Z,10.6
2019-04-03T04:42:50.678Z,10
2019-04-03T04:43:50.876Z,10.3
2019-04-03T04:44:50.899Z,10.4
2019-04-03T04:45:50.979Z,10.4
2019-04-03T04:46:52.170Z,10.8
2019-04-03T04:47:51.208Z,10.3
2019-04-03T04:48:52.026Z,10.8
2019-04-03T04:49:51.713Z,11.3
2019-04-03T04:50:54.178Z,11.5
2019-04-03T04:51:52.584Z,10.9
2019-04-03T04:52:52.652Z,11.1
2019-04-03T04:53:51.741Z,10.5
2019-04-03T04:54:51.897Z,10.7
2019-04-03T04:55:52.025Z,10.5
2019-04-03T04:56:52.140Z,10.7
2019-04-03T04:57:52.299Z,11.2
2019-04-03T04:58:52.436Z,10.4
2019-04-03T04:59:52.418Z,10.6
2019-04-03T05:00:53.378Z,11.2
2019-04-03T05:01:52.681Z,11
2019-04-03T05:02:52.550Z,10.3
2019-04-03T05:03:53.881Z,10.4
2019-04-03T05:04:53.828Z,11
2019-04-03T05:05:53.909Z,10.8
2019-04-03T05:06:54.044Z,11.5
2019-04-03T05:07:53.127Z,11
2019-04-03T05:08:53.248Z,11
2019-04-03T05:09:53.395Z,10.9
2019-04-03T05:10:53.509Z,10.8
2019-04-03T05:11:53.654Z,10.9
2019-04-03T05:12:53.844Z,10.5
2019-04-03T05:13:53.844Z,11.5
2019-04-03T05:14:53.967Z,11
2019-04-03T05:15:54.645Z,11.2
2019-04-03T05:16:55.805Z,11.3
2019-04-03T05:17:54.305Z,10.5
2019-04-03T05:18:55.422Z,11.2
2019-04-03T05:19:55.557Z,11.2
2019-04-03T05:20:54.667Z,11.4
2019-04-03T05:21:54.764Z,11.1
2019-04-03T05:22:55.668Z,11.2
2019-04-03T05:23:56.000Z,11.4
2019-04-03T05:24:58.841Z,11.6
2019-04-03T05:25:56.152Z,11.8
2019-04-03T05:26:56.257Z,11.6
2019-04-03T05:27:55.370Z,11.2
2019-04-03T05:28:57.674Z,11.3
2019-04-03T05:29:55.559Z,12
2019-04-03T05:30:55.665Z,11.4
2019-04-03T05:31:55.770Z,11.5
2019-04-03T05:32:55.873Z,11.7
2019-04-03T05:33:56.017Z,11.6
2019-04-03T05:34:56.139Z,11.6
2019-04-03T05:35:56.240Z,12.1
2019-04-03T05:36:56.342Z,12.1
2019-04-03T05:37:56.424Z,11.8
2019-04-03T05:38:56.530Z,12.3
2019-04-03T05:39:56.664Z,12.8
2019-04-03T05:40:57.132Z,12.3
2019-04-03T05:41:59.284Z,12.3
2019-04-03T05:42:57.877Z,12.1
2019-04-03T05:43:58.084Z,12.4
2019-04-03T05:44:58.239Z,12.6
2019-04-03T05:45:57.179Z,12.3
2019-04-03T05:46:59.245Z,12.2
2019-04-03T05:47:57.619Z,11.6
2019-04-03T05:48:57.500Z,12.8
2019-04-03T05:49:57.619Z,12.5
2019-04-03T05:50:58.518Z,12.4
2019-04-03T05:51:58.081Z,12.2
2019-04-03T05:52:58.004Z,12.6
2019-04-03T05:53:58.100Z,12.8
2019-04-03T05:54:58.260Z,12.9
2019-04-03T05:55:58.277Z,12.9
2019-04-03T05:56:58.360Z,12.9
2019-04-03T05:57:58.762Z,13.5
2019-04-03T05:59:00.950Z,13.1
2019-04-03T06:00:02.022Z,13.9
2019-04-03T06:01:04.714Z,12.6
2019-04-03T06:01:59.763Z,14.3
2019-04-03T06:02:59.804Z,14.5
2019-04-03T06:03:58.938Z,15.2
2019-04-03T06:04:59.000Z,14.6
2019-04-03T06:05:59.018Z,14.2
2019-04-03T06:06:59.142Z,14.7
2019-04-03T06:07:59.115Z,14.3
2019-04-03T06:08:59.326Z,16.200001
2019-04-03T06:09:59.515Z,15.4
2019-04-03T06:10:59.398Z,15.5
2019-04-03T06:12:00.380Z,16.6
2019-04-03T06:12:59.421Z,16.5
2019-04-03T06:13:59.680Z,15.6
2019-04-03T06:14:59.454Z,15.2
2019-04-03T06:15:59.432Z,15.8
2019-04-03T06:16:59.519Z,15.1
2019-04-03T06:17:59.627Z,15.8
2019-04-03T06:18:59.795Z,16.9
2019-04-03T06:19:59.922Z,15.4
2019-04-03T06:21:00.035Z,16.200001
2019-04-03T06:22:00.164Z,15.9
2019-04-03T06:23:00.110Z,15.3
2019-04-03T06:24:00.145Z,16.6
2019-04-03T06:25:00.205Z,16.700001
2019-04-03T06:26:01.736Z,16.700001
2019-04-03T06:27:00.514Z,16.6
2019-04-03T06:28:00.572Z,15.9
2019-04-03T06:29:00.768Z,15.5
2019-04-03T06:30:00.900Z,17.299999
2019-04-03T06:31:00.882Z,17.200001
2019-04-03T06:32:00.893Z,16.6
2019-04-03T06:33:02.710Z,16.299999
2019-04-03T06:34:01.142Z,16.700001
2019-04-03T06:35:01.250Z,17.200001
2019-04-03T06:36:01.263Z,18.1
2019-04-03T06:37:01.451Z,17.1
2019-04-03T06:38:01.526Z,16.799999
2019-04-03T06:39:01.631Z,16.799999
2019-04-03T06:40:02.824Z,17.299999
2019-04-03T06:41:01.853Z,16.9
2019-04-03T06:42:02.203Z,17
2019-04-03T06:43:02.064Z,17.700001
2019-04-03T06:44:02.012Z,16.700001
2019-04-03T06:45:02.047Z,17.9
2019-04-03T06:46:02.623Z,17.4
2019-04-03T06:47:02.133Z,17.700001
2019-04-03T06:48:04.134Z,18.1
2019-04-03T06:49:03.483Z,17.299999
2019-04-03T06:50:03.261Z,17.200001
2019-04-03T06:51:02.564Z,17
2019-04-03T06:52:02.387Z,18
2019-04-03T06:53:02.421Z,17.9
2019-04-03T06:54:02.498Z,18.1
2019-04-03T06:55:04.072Z,17.700001
2019-04-03T06:56:02.559Z,18.200001
2019-04-03T06:57:03.616Z,18
2019-04-03T06:58:02.645Z,18.200001
2019-04-03T06:59:02.684Z,18.4
2019-04-03T07:00:02.767Z,18
2019-04-03T07:01:03.038Z,18.1
2019-04-03T07:02:02.848Z,18.9
2019-04-03T07:03:03.819Z,18.200001
2019-04-03T07:04:04.336Z,18.799999
2019-04-03T07:05:04.024Z,18.799999
2019-04-03T07:06:03.394Z,19.700001
2019-04-03T07:07:03.232Z,18.1
2019-04-03T07:08:04.990Z,18.6
2019-04-03T07:09:05.193Z,18.1
2019-04-03T07:10:04.218Z,18.299999
2019-04-03T07:11:04.510Z,18.1
2019-04-03T07:12:03.632Z,17.799999
2019-04-03T07:13:03.773Z,18.6
2019-04-03T07:14:03.935Z,17.799999
2019-04-03T07:15:04.102Z,18.5
2019-04-03T07:16:04.045Z,19.4
2019-04-03T07:17:05.682Z,18.5
2019-04-03T07:18:05.761Z,17.9
2019-04-03T07:19:05.770Z,18.9
2019-04-03T07:20:13.178Z,17.9
2019-04-03T07:21:05.435Z,17.6
2019-04-03T07:22:04.466Z,17.5
2019-04-03T07:23:04.492Z,18.6
2019-04-03T07:24:04.526Z,18.1
2019-04-03T07:25:04.597Z,18.4
2019-04-03T07:26:05.476Z,17.299999
2019-04-03T07:27:06.257Z,17.799999
2019-04-03T07:28:05.059Z,18.299999
2019-04-03T07:29:05.840Z,17.799999
2019-04-03T07:30:04.910Z,17.5
2019-04-03T07:31:05.261Z,18.9
2019-04-03T07:32:04.997Z,18.5
2019-04-03T07:33:06.214Z,20
2019-04-03T07:34:05.043Z,18.200001
2019-04-03T07:35:07.549Z,18.700001
2019-04-03T07:36:06.135Z,19.200001
2019-04-03T07:37:06.620Z,18.6
2019-04-03T07:38:05.209Z,19.200001
2019-04-03T07:39:05.266Z,18
2019-04-03T07:40:06.305Z,20
2019-04-03T07:41:05.354Z,20.5
2019-04-03T07:42:05.410Z,21.5
2019-04-03T07:43:05.464Z,20.1
2019-04-03T07:44:05.492Z,19.6
2019-04-03T07:45:05.841Z,20.299999
2019-04-03T07:46:05.617Z,20.799999
2019-04-03T07:47:05.651Z,21.4
2019-04-03T07:48:06.574Z,20.799999
2019-04-03T07:49:06.749Z,21
2019-04-03T07:50:06.807Z,21.4
2019-04-03T07:51:06.843Z,21.9
2019-04-03T07:52:05.883Z,22.9
2019-04-03T07:53:05.926Z,23.200001
2019-04-03T07:54:05.987Z,22.799999
2019-04-03T07:55:06.059Z,22.5
2019-04-03T07:56:06.284Z,20.799999
2019-04-03T07:57:09.180Z,20.5
2019-04-03T07:58:07.301Z,21.299999
2019-04-03T07:59:06.263Z,23.299999
2019-04-03T08:00:07.143Z,23.4
2019-04-03T08:01:09.418Z,21.299999
2019-04-03T08:02:07.534Z,21.700001
2019-04-03T08:03:07.479Z,22.700001
2019-04-03T08:04:06.587Z,22.200001
2019-04-03T08:05:06.596Z,22.6
2019-04-03T08:06:06.665Z,22.4
2019-04-03T08:07:06.728Z,22.9
2019-04-03T08:08:06.867Z,20.799999
2019-04-03T08:09:09.190Z,20.6
2019-04-03T08:10:07.873Z,21.799999
2019-04-03T08:11:06.839Z,22.5
2019-04-03T08:12:06.865Z,24.5
2019-04-03T08:13:07.561Z,24.6
2019-04-03T08:14:08.991Z,23.299999
2019-04-03T08:15:08.046Z,22.9
2019-04-03T08:16:08.242Z,22
2019-04-03T08:17:07.109Z,21.6
2019-04-03T08:18:07.356Z,21.700001
2019-04-03T08:19:08.255Z,22.200001
2019-04-03T08:20:07.301Z,22
2019-04-03T08:21:07.334Z,21.9
2019-04-03T08:22:07.368Z,21.700001
2019-04-03T08:23:07.389Z,22
2019-04-03T08:24:08.050Z,21.6
2019-04-03T08:25:10.474Z,19.4
2019-04-03T08:26:10.874Z,21.1
2019-04-03T08:27:08.886Z,20.4
2019-04-03T08:28:07.625Z,21.6
2019-04-03T08:29:07.663Z,22.6
2019-04-03T08:30:08.584Z,23.299999
2019-04-03T08:31:10.346Z,23.700001
2019-04-03T08:32:08.869Z,23.799999
2019-04-03T08:33:15.647Z,23.799999
2019-04-03T08:34:15.443Z,23
2019-04-03T08:35:19.136Z,24.200001
2019-04-03T08:36:09.007Z,23.5
2019-04-03T08:37:09.990Z,22.4
2019-04-03T08:38:09.400Z,25.6
2019-04-03T08:39:09.066Z,25.700001
2019-04-03T08:40:08.535Z,23.1
2019-04-03T08:41:08.147Z,23.4
2019-04-03T08:42:08.200Z,23.200001
2019-04-03T08:43:08.508Z,23.299999
2019-04-03T08:44:09.039Z,23.4
2019-04-03T08:45:08.300Z,24.5
2019-04-03T08:46:10.499Z,23.700001
2019-04-03T08:47:08.378Z,24.299999
2019-04-03T08:48:09.400Z,21.700001
2019-04-03T08:49:08.484Z,22.4
2019-04-03T08:50:08.519Z,24
2019-04-03T08:51:08.552Z,25
2019-04-03T08:52:08.579Z,25.6
2019-04-03T08:53:09.787Z,23.1
2019-04-03T08:54:10.185Z,22.9
2019-04-03T08:55:08.693Z,23.5
2019-04-03T08:56:09.739Z,24.4
2019-04-03T08:57:08.790Z,26.9
2019-04-03T08:58:08.991Z,26.700001
2019-04-03T08:59:08.928Z,28.5
2019-04-03T09:00:09.976Z,28.5
2019-04-03T09:01:10.550Z,26.4
2019-04-03T09:02:12.174Z,25.5
2019-04-03T09:03:10.042Z,24.6
2019-04-03T09:04:10.115Z,24.799999
2019-04-03T09:05:09.346Z,25.4
2019-04-03T09:06:10.175Z,25.700001
2019-04-03T09:07:09.273Z,24.299999
2019-04-03T09:08:09.326Z,25.700001
2019-04-03T09:09:09.369Z,25.799999
2019-04-03T09:10:09.438Z,23.1
2019-04-03T09:11:09.477Z,23
2019-04-03T09:12:09.518Z,22.5
2019-04-03T09:13:17.271Z,23.799999
2019-04-03T09:14:10.589Z,24.1
2019-04-03T09:15:09.709Z,24
2019-04-03T09:16:10.839Z,24.4
2019-04-03T09:17:09.765Z,25
2019-04-03T09:18:09.794Z,24.200001
2019-04-03T09:19:10.808Z,25.200001
2019-04-03T09:20:12.335Z,23.5
2019-04-03T09:21:10.921Z,24.299999
2019-04-03T09:22:10.950Z,24.6
2019-04-03T09:23:10.007Z,24.200001
2019-04-03T09:24:10.302Z,24.200001
2019-04-03T09:25:13.020Z,25.299999
2019-04-03T09:26:11.151Z,25.9
2019-04-03T09:27:10.595Z,25.700001
2019-04-03T09:28:10.972Z,23.700001
2019-04-03T09:29:12.407Z,23
2019-04-03T09:30:11.320Z,25.799999
2019-04-03T09:31:11.409Z,24.4
2019-04-03T09:32:10.388Z,22.5
2019-04-03T09:33:10.427Z,22
2019-04-03T09:34:10.477Z,22.200001
2019-04-03T09:35:10.542Z,24.9
2019-04-03T09:36:10.598Z,26.1
2019-04-03T09:37:10.741Z,25.299999
2019-04-03T09:38:11.012Z,23.799999
2019-04-03T09:39:12.778Z,22.1
2019-04-03T09:40:11.843Z,22.799999
2019-04-03T09:41:12.025Z,24.299999
2019-04-03T09:42:10.966Z,25.1
2019-04-03T09:43:11.078Z,23.9
2019-04-03T09:44:11.159Z,23.299999
2019-04-03T09:45:11.421Z,22.5
2019-04-03T09:46:11.334Z,24.9
2019-04-03T09:47:11.329Z,23.6
2019-04-03T09:48:12.431Z,24.700001
2019-04-03T09:49:11.390Z,24.1
2019-04-03T09:50:11.890Z,24
2019-04-03T09:51:12.860Z,25.299999
2019-04-03T09:52:12.785Z,23.200001
2019-04-03T09:53:11.596Z,22.799999
2019-04-03T09:54:11.623Z,26
2019-04-03T09:55:12.099Z,25.799999
2019-04-03T09:56:11.707Z,26.6
2019-04-03T09:57:12.015Z,26
2019-04-03T09:58:11.792Z,26.799999
2019-04-03T09:59:12.279Z,28
2019-04-03T10:00:12.887Z,27.200001
2019-04-03T10:01:14.643Z,28.4
2019-04-03T10:02:12.986Z,28.200001
2019-04-03T10:03:12.017Z,26.700001
2019-04-03T10:04:12.303Z,25.9
2019-04-03T10:05:12.241Z,27
2019-04-03T10:06:12.446Z,29.799999
2019-04-03T10:07:12.341Z,27.6
2019-04-03T10:08:12.500Z,27.700001
2019-04-03T10:09:12.816Z,26.5
2019-04-03T10:10:13.959Z,28.200001
2019-04-03T10:11:15.081Z,29.200001
2019-04-03T10:12:13.721Z,28.299999
2019-04-03T10:13:12.802Z,29.5
2019-04-03T10:14:12.885Z,28.4
2019-04-03T10:15:12.987Z,28.6
2019-04-03T10:16:15.903Z,29.200001
2019-04-03T10:17:13.051Z,29.299999
2019-04-03T10:18:13.088Z,27.799999
2019-04-03T10:19:14.569Z,28.299999
2019-04-03T10:20:13.398Z,30.1
2019-04-03T10:21:14.271Z,30.200001
2019-04-03T10:22:14.327Z,29.700001
2019-04-03T10:23:13.522Z,29.799999
2019-04-03T10:24:13.415Z,29.700001
2019-04-03T10:25:13.655Z,29.6
2019-04-03T10:26:13.550Z,28.700001
2019-04-03T10:27:13.605Z,29.6
2019-04-03T10:28:14.693Z,29
2019-04-03T10:29:13.742Z,30.6
2019-04-03T10:30:14.863Z,30.1
2019-04-03T10:31:13.905Z,29.4
2019-04-03T10:32:13.969Z,29.299999
2019-04-03T10:33:14.246Z,31
2019-04-03T10:34:14.769Z,28.299999
2019-04-03T10:35:14.250Z,29.4
2019-04-03T10:36:14.265Z,28.700001
2019-04-03T10:37:15.662Z,28.799999
2019-04-03T10:38:14.348Z,28.200001
2019-04-03T10:39:15.929Z,29
2019-04-03T10:40:15.599Z,29.9
2019-04-03T10:41:14.437Z,30.200001
2019-04-03T10:42:14.597Z,29.4
2019-04-03T10:43:14.502Z,29.5
2019-04-03T10:44:14.973Z,29.799999
2019-04-03T10:45:14.861Z,29.799999
2019-04-03T10:46:14.740Z,29.799999
2019-04-03T10:47:16.049Z,30.1
2019-04-03T10:48:15.813Z,31.5
2019-04-03T10:49:14.850Z,30.700001
2019-04-03T10:50:15.063Z,29.5
2019-04-03T10:51:15.206Z,29.299999
2019-04-03T10:52:15.195Z,30
2019-04-03T10:53:15.046Z,30.5
2019-04-03T10:54:16.260Z,30.5
2019-04-03T10:55:15.170Z,29.299999
2019-04-03T10:56:15.485Z,29.5
2019-04-03T10:57:15.268Z,29.799999
2019-04-03T10:58:15.294Z,29
2019-04-03T10:59:17.625Z,29.299999
2019-04-03T11:00:16.662Z,28.700001
2019-04-03T11:01:15.570Z,27.799999
2019-04-03T11:02:15.545Z,26.700001
2019-04-03T11:03:15.596Z,28.9
2019-04-03T11:04:15.646Z,28.4
2019-04-03T11:05:15.695Z,28.200001
2019-04-03T11:06:15.774Z,29.299999
2019-04-03T11:07:15.821Z,27.299999
2019-04-03T11:08:15.893Z,28.799999
2019-04-03T11:09:15.974Z,28.1
2019-04-03T11:10:17.011Z,28.299999
2019-04-03T11:11:16.050Z,26.9
2019-04-03T11:12:16.099Z,27.6
2019-04-03T11:13:16.150Z,28.299999
2019-04-03T11:14:16.198Z,28.1
2019-04-03T11:15:16.234Z,27.9
2019-04-03T11:16:16.325Z,26.799999
2019-04-03T11:17:18.074Z,26.9
2019-04-03T11:18:16.393Z,27.299999
2019-04-03T11:19:19.472Z,27.299999
2019-04-03T11:20:16.453Z,26.4
2019-04-03T11:21:16.509Z,25.1
2019-04-03T11:22:16.781Z,24.4
2019-04-03T11:23:18.044Z,23.5
2019-04-03T11:24:17.700Z,22.299999
2019-04-03T11:25:17.108Z,20.9
2019-04-03T11:26:18.300Z,21.799999
2019-04-03T11:27:17.896Z,22.200001
2019-04-03T11:28:18.286Z,21.6
2019-04-03T11:29:17.147Z,19.9
2019-04-03T11:30:20.029Z,22
2019-04-03T11:31:25.313Z,21.200001
2019-04-03T11:32:18.130Z,20.4
2019-04-03T11:33:18.112Z,19.9
2019-04-03T11:34:18.479Z,19.5
2019-04-03T11:35:17.222Z,18.799999
2019-04-03T11:36:18.286Z,19.6
2019-04-03T11:37:17.328Z,18.6
2019-04-03T11:38:25.890Z,19.299999
2019-04-03T11:39:18.700Z,18.5
2019-04-03T11:40:18.655Z,18.1
2019-04-03T11:41:19.222Z,17.200001
2019-04-03T11:42:24.462Z,16
2019-04-03T11:43:18.640Z,16
2019-04-03T11:44:17.839Z,15.3
2019-04-03T11:45:18.096Z,14.8
2019-04-03T11:46:17.847Z,14.1
2019-04-03T11:47:17.887Z,13.6
2019-04-03T11:48:17.985Z,13.3
2019-04-03T11:49:19.965Z,13.1
2019-04-03T11:50:18.148Z,12.9
2019-04-03T11:51:18.074Z,13.7
2019-04-03T11:52:18.411Z,13.8
2019-04-03T11:53:18.157Z,13.1
2019-04-03T11:54:18.567Z,12.9
2019-04-03T11:55:18.257Z,12.7
2019-04-03T11:56:18.445Z,12.2
2019-04-03T11:57:18.566Z,10.7
2019-04-03T11:58:20.660Z,11.3
2019-04-03T11:59:19.580Z,11.5
2019-04-03T12:00:19.915Z,10.5
2019-04-03T12:01:18.664Z,10.7
2019-04-03T12:02:18.709Z,11
2019-04-03T12:03:18.807Z,10.2
2019-04-03T12:04:19.147Z,10.3
2019-04-03T12:05:20.857Z,10.9
2019-04-03T12:06:20.189Z,10
2019-04-03T12:07:20.086Z,10.1
2019-04-03T12:08:20.111Z,9.9
2019-04-03T12:09:19.409Z,9.9
2019-04-03T12:10:19.300Z,9.8
2019-04-03T12:11:19.389Z,9.3
2019-04-03T12:12:19.489Z,9.4
2019-04-03T12:13:20.872Z,8.7
2019-04-03T12:14:19.383Z,9.3
2019-04-03T12:15:21.066Z,9
2019-04-03T12:16:19.569Z,9.1
2019-04-03T12:17:20.553Z,7.4
2019-04-03T12:18:19.628Z,7.6
2019-04-03T12:19:19.674Z,7.7
2019-04-03T12:20:19.717Z,6.6
2019-04-03T12:21:20.286Z,5.8
2019-04-03T12:22:21.895Z,6.1
2019-04-03T12:23:21.345Z,6.5
2019-04-03T12:24:20.990Z,7.2
2019-04-03T12:25:20.036Z,7.5
2019-04-03T12:26:21.230Z,7.2
2019-04-03T12:27:20.149Z,6.4
2019-04-03T12:28:20.231Z,6.1
2019-04-03T12:29:21.345Z,6.3
2019-04-03T12:30:20.597Z,6.7
2019-04-03T12:31:20.481Z,6.3
2019-04-03T12:32:20.573Z,6.4
2019-04-03T12:33:21.154Z,6.2
2019-04-03T12:34:22.871Z,6.5
2019-04-03T12:35:21.779Z,6.4
2019-04-03T12:36:20.695Z,6.6
2019-04-03T12:37:20.800Z,6.5
2019-04-03T12:38:22.414Z,6.2
2019-04-03T12:39:20.921Z,6.8
2019-04-03T12:40:20.973Z,6.9
2019-04-03T12:41:21.107Z,7.3
2019-04-03T12:42:21.316Z,7.3
2019-04-03T12:43:21.165Z,7.5
2019-04-03T12:44:21.937Z,7.3
2019-04-03T12:45:21.566Z,6.9
2019-04-03T12:46:22.322Z,7.3
2019-04-03T12:47:21.509Z,7.7
2019-04-03T12:48:21.831Z,7
2019-04-03T12:49:22.373Z,7.2
2019-04-03T12:50:22.792Z,6.9
2019-04-03T12:51:23.164Z,7.4
2019-04-03T12:52:22.047Z,7.6